sensor_id;sensor_type;location;lat;lon;timestamp;P1;durP1;ratioP1;P2;durP2;ratioP2
10701;SDS011;5402;50.004;8.246;2024-01-07T00:01:45;4.70;;;3.17;;
10701;SDS011;5402;50.004;8.246;2024-01-07T00:04:14;4.07;;;3.23;;
10701;SDS011;5402;50.004;8.246;2024-01-07T00:06:42;3.73;;;3.07;;
10701;SDS011;5402;50.004;8.246;2024-01-07T00:09:10;4.80;;;3.20;;
10701;SDS011;5402;50.004;8.246;2024-01-07T00:11:37;4.33;;;3.43;;
10701;SDS011;5402;50.004;8.246;2024-01-07T00:14:04;4.50;;;3.00;;
10701;SDS011;5402;50.004;8.246;2024-01-07T00:16:31;4.73;;;3.30;;
10701;SDS011;5402;50.004;8.246;2024-01-07T00:19:00;4.30;;;3.20;;
10701;SDS011;5402;50.004;8.246;2024-01-07T00:21:27;5.83;;;3.33;;
10701;SDS011;5402;50.004;8.246;2024-01-07T00:23:55;5.17;;;3.33;;
10701;SDS011;5402;50.004;8.246;2024-01-07T00:26:24;4.83;;;3.30;;
10701;SDS011;5402;50.004;8.246;2024-01-07T00:28:51;5.60;;;3.60;;
10701;SDS011;5402;50.004;8.246;2024-01-07T00:31:17;4.47;;;3.20;;
10701;SDS011;5402;50.004;8.246;2024-01-07T00:33:44;5.27;;;3.67;;
10701;SDS011;5402;50.004;8.246;2024-01-07T00:36:11;5.43;;;3.27;;
10701;SDS011;5402;50.004;8.246;2024-01-07T00:38:38;4.57;;;3.20;;
10701;SDS011;5402;50.004;8.246;2024-01-07T00:41:06;5.57;;;4.10;;
10701;SDS011;5402;50.004;8.246;2024-01-07T00:43:37;5.57;;;3.73;;
10701;SDS011;5402;50.004;8.246;2024-01-07T00:46:05;6.30;;;4.20;;
10701;SDS011;5402;50.004;8.246;2024-01-07T00:48:32;5.83;;;3.60;;
10701;SDS011;5402;50.004;8.246;2024-01-07T00:50:58;5.50;;;4.27;;
10701;SDS011;5402;50.004;8.246;2024-01-07T00:53:25;6.23;;;4.03;;
10701;SDS011;5402;50.004;8.246;2024-01-07T00:55:52;5.17;;;3.70;;
10701;SDS011;5402;50.004;8.246;2024-01-07T00:58:22;5.77;;;4.07;;
10701;SDS011;5402;50.004;8.246;2024-01-07T01:00:49;5.60;;;4.10;;
10701;SDS011;5402;50.004;8.246;2024-01-07T01:03:19;7.13;;;4.63;;
10701;SDS011;5402;50.004;8.246;2024-01-07T01:05:48;6.20;;;3.90;;
10701;SDS011;5402;50.004;8.246;2024-01-07T01:08:15;6.03;;;4.10;;
10701;SDS011;5402;50.004;8.246;2024-01-07T01:10:42;5.70;;;3.67;;
10701;SDS011;5402;50.004;8.246;2024-01-07T01:13:09;4.87;;;3.40;;
10701;SDS011;5402;50.004;8.246;2024-01-07T01:15:37;5.13;;;3.80;;
10701;SDS011;5402;50.004;8.246;2024-01-07T01:18:04;5.33;;;3.70;;
10701;SDS011;5402;50.004;8.246;2024-01-07T01:20:31;4.83;;;3.70;;
10701;SDS011;5402;50.004;8.246;2024-01-07T01:22:58;7.83;;;4.20;;
10701;SDS011;5402;50.004;8.246;2024-01-07T01:25:25;5.63;;;3.60;;
10701;SDS011;5402;50.004;8.246;2024-01-07T01:27:52;6.10;;;3.93;;
10701;SDS011;5402;50.004;8.246;2024-01-07T01:30:20;4.87;;;3.70;;
10701;SDS011;5402;50.004;8.246;2024-01-07T01:32:48;5.60;;;3.87;;
10701;SDS011;5402;50.004;8.246;2024-01-07T01:35:15;7.67;;;3.90;;
10701;SDS011;5402;50.004;8.246;2024-01-07T01:37:42;6.27;;;4.60;;
10701;SDS011;5402;50.004;8.246;2024-01-07T01:40:09;6.37;;;4.30;;
10701;SDS011;5402;50.004;8.246;2024-01-07T01:42:37;5.83;;;4.17;;
10701;SDS011;5402;50.004;8.246;2024-01-07T01:45:04;5.53;;;4.43;;
10701;SDS011;5402;50.004;8.246;2024-01-07T01:47:31;5.40;;;4.10;;
10701;SDS011;5402;50.004;8.246;2024-01-07T01:49:59;5.20;;;3.90;;
10701;SDS011;5402;50.004;8.246;2024-01-07T01:52:28;6.30;;;4.03;;
10701;SDS011;5402;50.004;8.246;2024-01-07T01:54:56;5.87;;;4.20;;
10701;SDS011;5402;50.004;8.246;2024-01-07T01:57:28;5.67;;;4.33;;
10701;SDS011;5402;50.004;8.246;2024-01-07T01:59:59;6.27;;;4.53;;
10701;SDS011;5402;50.004;8.246;2024-01-07T02:02:29;6.10;;;4.60;;
10701;SDS011;5402;50.004;8.246;2024-01-07T02:04:56;5.57;;;4.13;;
10701;SDS011;5402;50.004;8.246;2024-01-07T02:07:25;5.80;;;4.13;;
10701;SDS011;5402;50.004;8.246;2024-01-07T02:09:53;7.03;;;4.33;;
10701;SDS011;5402;50.004;8.246;2024-01-07T02:12:21;6.77;;;4.70;;
10701;SDS011;5402;50.004;8.246;2024-01-07T02:14:50;6.60;;;4.60;;
10701;SDS011;5402;50.004;8.246;2024-01-07T02:17:19;6.20;;;4.50;;
10701;SDS011;5402;50.004;8.246;2024-01-07T02:19:46;6.57;;;4.40;;
10701;SDS011;5402;50.004;8.246;2024-01-07T02:22:13;6.47;;;4.53;;
10701;SDS011;5402;50.004;8.246;2024-01-07T02:24:41;4.77;;;3.90;;
10701;SDS011;5402;50.004;8.246;2024-01-07T02:27:08;5.67;;;4.00;;
10701;SDS011;5402;50.004;8.246;2024-01-07T02:29:35;6.70;;;4.57;;
10701;SDS011;5402;50.004;8.246;2024-01-07T02:32:01;6.63;;;4.37;;
10701;SDS011;5402;50.004;8.246;2024-01-07T02:34:30;6.17;;;4.33;;
10701;SDS011;5402;50.004;8.246;2024-01-07T02:36:57;6.60;;;4.17;;
10701;SDS011;5402;50.004;8.246;2024-01-07T02:39:24;5.60;;;4.07;;
10701;SDS011;5402;50.004;8.246;2024-01-07T02:41:52;5.67;;;4.30;;
10701;SDS011;5402;50.004;8.246;2024-01-07T02:44:19;6.17;;;4.50;;
10701;SDS011;5402;50.004;8.246;2024-01-07T02:46:46;6.87;;;4.10;;
10701;SDS011;5402;50.004;8.246;2024-01-07T02:49:12;6.73;;;4.60;;
10701;SDS011;5402;50.004;8.246;2024-01-07T02:51:39;4.53;;;3.80;;
10701;SDS011;5402;50.004;8.246;2024-01-07T02:54:09;5.27;;;4.33;;
10701;SDS011;5402;50.004;8.246;2024-01-07T02:56:36;4.67;;;3.57;;
10701;SDS011;5402;50.004;8.246;2024-01-07T02:59:04;4.90;;;4.13;;
10701;SDS011;5402;50.004;8.246;2024-01-07T03:01:31;4.20;;;3.40;;
10701;SDS011;5402;50.004;8.246;2024-01-07T03:04:05;4.93;;;3.67;;
10701;SDS011;5402;50.004;8.246;2024-01-07T03:06:32;5.03;;;3.53;;
10701;SDS011;5402;50.004;8.246;2024-01-07T03:08:58;4.10;;;3.50;;
10701;SDS011;5402;50.004;8.246;2024-01-07T03:11:25;4.63;;;3.70;;
10701;SDS011;5402;50.004;8.246;2024-01-07T03:13:52;4.23;;;3.20;;
10701;SDS011;5402;50.004;8.246;2024-01-07T03:16:21;4.93;;;3.50;;
10701;SDS011;5402;50.004;8.246;2024-01-07T03:18:52;4.60;;;3.50;;
10701;SDS011;5402;50.004;8.246;2024-01-07T03:21:20;4.07;;;3.47;;
10701;SDS011;5402;50.004;8.246;2024-01-07T03:23:49;4.53;;;3.50;;
10701;SDS011;5402;50.004;8.246;2024-01-07T03:26:17;4.67;;;3.53;;
10701;SDS011;5402;50.004;8.246;2024-01-07T03:28:44;4.13;;;3.37;;
10701;SDS011;5402;50.004;8.246;2024-01-07T03:31:11;4.97;;;3.60;;
10701;SDS011;5402;50.004;8.246;2024-01-07T03:33:43;4.47;;;3.60;;
10701;SDS011;5402;50.004;8.246;2024-01-07T03:36:11;6.03;;;3.70;;
10701;SDS011;5402;50.004;8.246;2024-01-07T03:38:38;4.97;;;3.60;;
10701;SDS011;5402;50.004;8.246;2024-01-07T03:41:07;4.17;;;3.10;;
10701;SDS011;5402;50.004;8.246;2024-01-07T03:43:34;4.60;;;3.30;;
10701;SDS011;5402;50.004;8.246;2024-01-07T03:46:01;4.87;;;3.50;;
10701;SDS011;5402;50.004;8.246;2024-01-07T03:48:28;4.87;;;3.20;;
10701;SDS011;5402;50.004;8.246;2024-01-07T03:50:56;5.00;;;3.20;;
10701;SDS011;5402;50.004;8.246;2024-01-07T03:53:23;3.90;;;3.23;;
10701;SDS011;5402;50.004;8.246;2024-01-07T03:55:50;4.53;;;3.50;;
10701;SDS011;5402;50.004;8.246;2024-01-07T03:58:18;4.13;;;3.13;;
10701;SDS011;5402;50.004;8.246;2024-01-07T04:00:45;3.70;;;3.00;;
10701;SDS011;5402;50.004;8.246;2024-01-07T04:03:16;5.03;;;3.47;;
10701;SDS011;5402;50.004;8.246;2024-01-07T04:05:42;5.33;;;3.50;;
10701;SDS011;5402;50.004;8.246;2024-01-07T04:08:14;5.27;;;3.97;;
10701;SDS011;5402;50.004;8.246;2024-01-07T04:10:41;4.17;;;3.43;;
10701;SDS011;5402;50.004;8.246;2024-01-07T04:13:08;4.87;;;3.57;;
10701;SDS011;5402;50.004;8.246;2024-01-07T04:15:35;3.97;;;3.17;;
10701;SDS011;5402;50.004;8.246;2024-01-07T04:18:04;5.03;;;3.10;;
10701;SDS011;5402;50.004;8.246;2024-01-07T04:20:31;6.03;;;3.83;;
10701;SDS011;5402;50.004;8.246;2024-01-07T04:22:58;4.30;;;3.20;;
10701;SDS011;5402;50.004;8.246;2024-01-07T04:25:26;4.80;;;3.40;;
10701;SDS011;5402;50.004;8.246;2024-01-07T04:27:53;4.07;;;3.20;;
10701;SDS011;5402;50.004;8.246;2024-01-07T04:30:20;3.87;;;3.17;;
10701;SDS011;5402;50.004;8.246;2024-01-07T04:32:47;5.53;;;3.63;;
10701;SDS011;5402;50.004;8.246;2024-01-07T04:35:13;5.63;;;3.47;;
10701;SDS011;5402;50.004;8.246;2024-01-07T04:37:41;5.60;;;3.37;;
10701;SDS011;5402;50.004;8.246;2024-01-07T04:40:10;5.50;;;3.57;;
10701;SDS011;5402;50.004;8.246;2024-01-07T04:42:39;4.50;;;3.27;;
10701;SDS011;5402;50.004;8.246;2024-01-07T04:45:06;5.40;;;3.40;;
10701;SDS011;5402;50.004;8.246;2024-01-07T04:47:33;3.80;;;3.07;;
10701;SDS011;5402;50.004;8.246;2024-01-07T04:50:00;4.77;;;3.53;;
10701;SDS011;5402;50.004;8.246;2024-01-07T04:52:27;4.33;;;3.20;;
10701;SDS011;5402;50.004;8.246;2024-01-07T04:54:54;4.57;;;3.23;;
10701;SDS011;5402;50.004;8.246;2024-01-07T04:57:21;5.87;;;3.67;;
10701;SDS011;5402;50.004;8.246;2024-01-07T04:59:54;4.47;;;2.97;;
10701;SDS011;5402;50.004;8.246;2024-01-07T05:02:20;4.47;;;3.27;;
10701;SDS011;5402;50.004;8.246;2024-01-07T05:04:48;4.03;;;3.30;;
10701;SDS011;5402;50.004;8.246;2024-01-07T05:07:15;3.87;;;3.07;;
10701;SDS011;5402;50.004;8.246;2024-01-07T05:09:42;4.07;;;2.93;;
10701;SDS011;5402;50.004;8.246;2024-01-07T05:12:09;3.87;;;3.17;;
10701;SDS011;5402;50.004;8.246;2024-01-07T05:14:35;4.53;;;2.93;;
10701;SDS011;5402;50.004;8.246;2024-01-07T05:17:04;3.93;;;3.10;;
10701;SDS011;5402;50.004;8.246;2024-01-07T05:19:32;4.63;;;3.27;;
10701;SDS011;5402;50.004;8.246;2024-01-07T05:21:59;4.57;;;3.53;;
10701;SDS011;5402;50.004;8.246;2024-01-07T05:24:26;4.17;;;2.63;;
10701;SDS011;5402;50.004;8.246;2024-01-07T05:26:54;3.93;;;2.73;;
10701;SDS011;5402;50.004;8.246;2024-01-07T05:29:21;6.60;;;3.10;;
10701;SDS011;5402;50.004;8.246;2024-01-07T05:31:48;3.90;;;2.77;;
10701;SDS011;5402;50.004;8.246;2024-01-07T05:34:17;4.83;;;3.33;;
10701;SDS011;5402;50.004;8.246;2024-01-07T05:36:44;5.20;;;2.93;;
10701;SDS011;5402;50.004;8.246;2024-01-07T05:39:11;4.57;;;3.07;;
10701;SDS011;5402;50.004;8.246;2024-01-07T05:41:38;4.67;;;3.23;;
10701;SDS011;5402;50.004;8.246;2024-01-07T05:44:06;3.50;;;2.87;;
10701;SDS011;5402;50.004;8.246;2024-01-07T05:46:34;4.03;;;2.87;;
10701;SDS011;5402;50.004;8.246;2024-01-07T05:49:04;4.83;;;3.10;;
10701;SDS011;5402;50.004;8.246;2024-01-07T05:51:32;3.80;;;2.60;;
10701;SDS011;5402;50.004;8.246;2024-01-07T05:53:59;4.27;;;2.97;;
10701;SDS011;5402;50.004;8.246;2024-01-07T05:56:27;3.27;;;2.63;;
10701;SDS011;5402;50.004;8.246;2024-01-07T05:58:54;3.23;;;2.60;;
10701;SDS011;5402;50.004;8.246;2024-01-07T06:01:22;4.20;;;2.63;;
10701;SDS011;5402;50.004;8.246;2024-01-07T06:03:49;3.03;;;2.30;;
10701;SDS011;5402;50.004;8.246;2024-01-07T06:06:17;2.43;;;1.97;;
10701;SDS011;5402;50.004;8.246;2024-01-07T06:08:45;3.40;;;2.47;;
10701;SDS011;5402;50.004;8.246;2024-01-07T06:11:13;3.27;;;2.30;;
10701;SDS011;5402;50.004;8.246;2024-01-07T06:13:43;3.40;;;2.00;;
10701;SDS011;5402;50.004;8.246;2024-01-07T06:16:10;3.33;;;2.27;;
10701;SDS011;5402;50.004;8.246;2024-01-07T06:18:37;2.77;;;2.30;;
10701;SDS011;5402;50.004;8.246;2024-01-07T06:21:06;3.10;;;2.20;;
10701;SDS011;5402;50.004;8.246;2024-01-07T06:23:32;3.27;;;2.30;;
10701;SDS011;5402;50.004;8.246;2024-01-07T06:26:04;3.43;;;2.53;;
10701;SDS011;5402;50.004;8.246;2024-01-07T06:28:31;4.23;;;2.93;;
10701;SDS011;5402;50.004;8.246;2024-01-07T06:30:58;5.27;;;3.17;;
10701;SDS011;5402;50.004;8.246;2024-01-07T06:33:25;3.87;;;2.90;;
10701;SDS011;5402;50.004;8.246;2024-01-07T06:35:51;4.73;;;3.20;;
10701;SDS011;5402;50.004;8.246;2024-01-07T06:38:20;5.37;;;3.27;;
10701;SDS011;5402;50.004;8.246;2024-01-07T06:40:47;5.40;;;3.67;;
10701;SDS011;5402;50.004;8.246;2024-01-07T06:43:15;6.73;;;3.27;;
10701;SDS011;5402;50.004;8.246;2024-01-07T06:45:42;5.23;;;3.20;;
10701;SDS011;5402;50.004;8.246;2024-01-07T06:48:09;5.63;;;3.50;;
10701;SDS011;5402;50.004;8.246;2024-01-07T06:50:36;5.87;;;3.70;;
10701;SDS011;5402;50.004;8.246;2024-01-07T06:53:03;6.20;;;3.93;;
10701;SDS011;5402;50.004;8.246;2024-01-07T06:55:30;9.53;;;4.23;;
10701;SDS011;5402;50.004;8.246;2024-01-07T06:57:57;7.47;;;4.45;;
10701;SDS011;5402;50.004;8.246;2024-01-07T07:00:26;7.43;;;4.50;;
10701;SDS011;5402;50.004;8.246;2024-01-07T07:02:53;6.37;;;4.77;;
10701;SDS011;5402;50.004;8.246;2024-01-07T07:05:20;6.80;;;4.63;;
10701;SDS011;5402;50.004;8.246;2024-01-07T07:07:47;9.03;;;5.10;;
10701;SDS011;5402;50.004;8.246;2024-01-07T07:10:13;9.53;;;5.87;;
10701;SDS011;5402;50.004;8.246;2024-01-07T07:12:40;8.43;;;5.60;;
10701;SDS011;5402;50.004;8.246;2024-01-07T07:15:08;9.60;;;5.53;;
10701;SDS011;5402;50.004;8.246;2024-01-07T07:17:36;9.03;;;5.57;;
10701;SDS011;5402;50.004;8.246;2024-01-07T07:20:06;6.53;;;4.67;;
10701;SDS011;5402;50.004;8.246;2024-01-07T07:22:34;6.90;;;4.67;;
10701;SDS011;5402;50.004;8.246;2024-01-07T07:25:01;6.03;;;4.40;;
10701;SDS011;5402;50.004;8.246;2024-01-07T07:27:28;7.67;;;5.17;;
10701;SDS011;5402;50.004;8.246;2024-01-07T07:29:55;8.87;;;5.27;;
10701;SDS011;5402;50.004;8.246;2024-01-07T07:32:22;6.77;;;4.93;;
10701;SDS011;5402;50.004;8.246;2024-01-07T07:34:54;7.00;;;5.37;;
10701;SDS011;5402;50.004;8.246;2024-01-07T07:37:23;5.13;;;4.20;;
10701;SDS011;5402;50.004;8.246;2024-01-07T07:39:50;7.53;;;5.07;;
10701;SDS011;5402;50.004;8.246;2024-01-07T07:42:17;6.33;;;4.43;;
10701;SDS011;5402;50.004;8.246;2024-01-07T07:44:46;5.17;;;4.43;;
10701;SDS011;5402;50.004;8.246;2024-01-07T07:47:13;5.17;;;3.87;;
10701;SDS011;5402;50.004;8.246;2024-01-07T07:49:44;5.80;;;4.17;;
10701;SDS011;5402;50.004;8.246;2024-01-07T07:52:12;6.50;;;4.33;;
10701;SDS011;5402;50.004;8.246;2024-01-07T07:54:40;5.57;;;4.37;;
10701;SDS011;5402;50.004;8.246;2024-01-07T07:57:08;5.30;;;4.03;;
10701;SDS011;5402;50.004;8.246;2024-01-07T07:59:35;6.10;;;4.57;;
10701;SDS011;5402;50.004;8.246;2024-01-07T08:02:02;5.73;;;4.10;;
10701;SDS011;5402;50.004;8.246;2024-01-07T08:04:29;5.70;;;4.03;;
10701;SDS011;5402;50.004;8.246;2024-01-07T08:06:56;5.67;;;4.53;;
10701;SDS011;5402;50.004;8.246;2024-01-07T08:09:24;5.93;;;4.00;;
10701;SDS011;5402;50.004;8.246;2024-01-07T08:11:53;6.50;;;4.70;;
10701;SDS011;5402;50.004;8.246;2024-01-07T08:14:20;6.00;;;4.30;;
10701;SDS011;5402;50.004;8.246;2024-01-07T08:16:50;4.40;;;3.87;;
10701;SDS011;5402;50.004;8.246;2024-01-07T08:19:17;5.07;;;3.90;;
10701;SDS011;5402;50.004;8.246;2024-01-07T08:21:45;5.63;;;4.40;;
10701;SDS011;5402;50.004;8.246;2024-01-07T08:24:12;6.23;;;4.47;;
10701;SDS011;5402;50.004;8.246;2024-01-07T08:26:40;6.23;;;4.13;;
10701;SDS011;5402;50.004;8.246;2024-01-07T08:29:09;6.23;;;4.30;;
10701;SDS011;5402;50.004;8.246;2024-01-07T08:31:36;4.77;;;4.00;;
10701;SDS011;5402;50.004;8.246;2024-01-07T08:34:03;5.27;;;3.60;;
10701;SDS011;5402;50.004;8.246;2024-01-07T08:36:30;5.10;;;3.67;;
10701;SDS011;5402;50.004;8.246;2024-01-07T08:38:57;4.80;;;3.47;;
10701;SDS011;5402;50.004;8.246;2024-01-07T08:41:25;6.37;;;4.17;;
10701;SDS011;5402;50.004;8.246;2024-01-07T08:43:53;5.17;;;3.63;;
10701;SDS011;5402;50.004;8.246;2024-01-07T08:46:20;6.17;;;3.93;;
10701;SDS011;5402;50.004;8.246;2024-01-07T08:48:48;5.87;;;3.90;;
10701;SDS011;5402;50.004;8.246;2024-01-07T08:51:21;7.07;;;3.93;;
10701;SDS011;5402;50.004;8.246;2024-01-07T08:53:50;5.97;;;3.93;;
10701;SDS011;5402;50.004;8.246;2024-01-07T08:56:16;6.00;;;3.60;;
10701;SDS011;5402;50.004;8.246;2024-01-07T08:58:45;5.40;;;3.97;;
10701;SDS011;5402;50.004;8.246;2024-01-07T09:01:14;6.23;;;3.63;;
10701;SDS011;5402;50.004;8.246;2024-01-07T09:03:40;8.73;;;4.50;;
10701;SDS011;5402;50.004;8.246;2024-01-07T09:06:07;5.87;;;4.00;;
10701;SDS011;5402;50.004;8.246;2024-01-07T09:08:34;5.00;;;3.73;;
10701;SDS011;5402;50.004;8.246;2024-01-07T09:11:03;6.17;;;4.20;;
10701;SDS011;5402;50.004;8.246;2024-01-07T09:13:31;7.47;;;4.07;;
10701;SDS011;5402;50.004;8.246;2024-01-07T09:16:00;6.23;;;4.07;;
10701;SDS011;5402;50.004;8.246;2024-01-07T09:18:32;5.67;;;3.97;;
10701;SDS011;5402;50.004;8.246;2024-01-07T09:20:59;6.90;;;4.33;;
10701;SDS011;5402;50.004;8.246;2024-01-07T09:23:27;6.50;;;3.97;;
10701;SDS011;5402;50.004;8.246;2024-01-07T09:25:54;5.70;;;3.63;;
10701;SDS011;5402;50.004;8.246;2024-01-07T09:28:21;6.83;;;4.40;;
10701;SDS011;5402;50.004;8.246;2024-01-07T09:30:50;7.10;;;4.07;;
10701;SDS011;5402;50.004;8.246;2024-01-07T09:33:17;6.20;;;3.87;;
10701;SDS011;5402;50.004;8.246;2024-01-07T09:35:46;7.43;;;4.40;;
10701;SDS011;5402;50.004;8.246;2024-01-07T09:38:13;5.87;;;4.10;;
10701;SDS011;5402;50.004;8.246;2024-01-07T09:40:40;7.07;;;4.70;;
10701;SDS011;5402;50.004;8.246;2024-01-07T09:43:07;7.20;;;4.70;;
10701;SDS011;5402;50.004;8.246;2024-01-07T09:45:35;7.27;;;5.07;;
10701;SDS011;5402;50.004;8.246;2024-01-07T09:48:04;10.90;;;5.33;;
10701;SDS011;5402;50.004;8.246;2024-01-07T09:50:31;7.17;;;4.67;;
10701;SDS011;5402;50.004;8.246;2024-01-07T09:53:00;8.60;;;5.33;;
10701;SDS011;5402;50.004;8.246;2024-01-07T09:55:37;8.00;;;5.50;;
10701;SDS011;5402;50.004;8.246;2024-01-07T09:58:16;8.57;;;5.43;;
10701;SDS011;5402;50.004;8.246;2024-01-07T10:00:43;8.27;;;4.60;;
10701;SDS011;5402;50.004;8.246;2024-01-07T10:03:10;6.90;;;4.13;;
10701;SDS011;5402;50.004;8.246;2024-01-07T10:05:39;7.27;;;4.13;;
10701;SDS011;5402;50.004;8.246;2024-01-07T10:08:07;5.70;;;4.33;;
10701;SDS011;5402;50.004;8.246;2024-01-07T10:10:36;7.03;;;4.97;;
10701;SDS011;5402;50.004;8.246;2024-01-07T10:13:05;6.90;;;4.90;;
10701;SDS011;5402;50.004;8.246;2024-01-07T10:15:33;6.67;;;4.10;;
10701;SDS011;5402;50.004;8.246;2024-01-07T10:18:03;6.97;;;4.37;;
10701;SDS011;5402;50.004;8.246;2024-01-07T10:20:31;5.33;;;4.00;;
10701;SDS011;5402;50.004;8.246;2024-01-07T10:22:59;6.60;;;4.43;;
10701;SDS011;5402;50.004;8.246;2024-01-07T10:25:28;7.93;;;4.40;;
10701;SDS011;5402;50.004;8.246;2024-01-07T10:27:58;5.97;;;4.40;;
10701;SDS011;5402;50.004;8.246;2024-01-07T10:30:26;7.00;;;4.47;;
10701;SDS011;5402;50.004;8.246;2024-01-07T10:32:57;6.43;;;4.20;;
10701;SDS011;5402;50.004;8.246;2024-01-07T10:35:29;6.83;;;4.60;;
10701;SDS011;5402;50.004;8.246;2024-01-07T10:37:59;7.00;;;4.63;;
10701;SDS011;5402;50.004;8.246;2024-01-07T10:40:29;6.73;;;4.67;;
10701;SDS011;5402;50.004;8.246;2024-01-07T10:42:57;7.17;;;4.50;;
10701;SDS011;5402;50.004;8.246;2024-01-07T10:45:25;6.87;;;4.67;;
10701;SDS011;5402;50.004;8.246;2024-01-07T10:47:55;6.10;;;4.60;;
10701;SDS011;5402;50.004;8.246;2024-01-07T10:50:26;8.43;;;4.83;;
10701;SDS011;5402;50.004;8.246;2024-01-07T10:52:57;6.87;;;4.40;;
10701;SDS011;5402;50.004;8.246;2024-01-07T10:55:29;6.87;;;4.50;;
10701;SDS011;5402;50.004;8.246;2024-01-07T10:58:01;6.07;;;4.20;;
10701;SDS011;5402;50.004;8.246;2024-01-07T11:00:30;5.97;;;4.37;;
10701;SDS011;5402;50.004;8.246;2024-01-07T11:03:00;6.00;;;4.60;;
10701;SDS011;5402;50.004;8.246;2024-01-07T11:05:37;5.43;;;3.93;;
10701;SDS011;5402;50.004;8.246;2024-01-07T11:08:16;6.40;;;4.37;;
10701;SDS011;5402;50.004;8.246;2024-01-07T11:10:53;6.80;;;4.33;;
10701;SDS011;5402;50.004;8.246;2024-01-07T11:13:31;6.30;;;4.50;;
10701;SDS011;5402;50.004;8.246;2024-01-07T11:16:01;6.20;;;4.20;;
10701;SDS011;5402;50.004;8.246;2024-01-07T11:18:30;5.57;;;3.83;;
10701;SDS011;5402;50.004;8.246;2024-01-07T11:20:59;6.23;;;4.33;;
10701;SDS011;5402;50.004;8.246;2024-01-07T11:23:29;5.17;;;3.67;;
10701;SDS011;5402;50.004;8.246;2024-01-07T11:25:59;5.83;;;4.23;;
10701;SDS011;5402;50.004;8.246;2024-01-07T11:28:45;6.90;;;4.63;;
10701;SDS011;5402;50.004;8.246;2024-01-07T11:31:13;6.50;;;4.10;;
10701;SDS011;5402;50.004;8.246;2024-01-07T11:33:41;6.43;;;4.60;;
10701;SDS011;5402;50.004;8.246;2024-01-07T11:36:14;7.27;;;4.43;;
10701;SDS011;5402;50.004;8.246;2024-01-07T11:38:45;6.43;;;4.60;;
10701;SDS011;5402;50.004;8.246;2024-01-07T11:41:17;5.23;;;4.23;;
10701;SDS011;5402;50.004;8.246;2024-01-07T11:43:53;6.13;;;4.47;;
10701;SDS011;5402;50.004;8.246;2024-01-07T11:46:22;5.40;;;3.73;;
10701;SDS011;5402;50.004;8.246;2024-01-07T11:48:53;7.27;;;5.03;;
10701;SDS011;5402;50.004;8.246;2024-01-07T11:51:23;7.03;;;4.67;;
10701;SDS011;5402;50.004;8.246;2024-01-07T11:53:51;6.20;;;4.43;;
10701;SDS011;5402;50.004;8.246;2024-01-07T11:56:19;6.33;;;4.27;;
10701;SDS011;5402;50.004;8.246;2024-01-07T11:58:46;5.13;;;3.80;;
10701;SDS011;5402;50.004;8.246;2024-01-07T12:01:14;5.93;;;4.37;;
10701;SDS011;5402;50.004;8.246;2024-01-07T12:03:45;5.67;;;3.87;;
10701;SDS011;5402;50.004;8.246;2024-01-07T12:06:22;5.77;;;4.20;;
10701;SDS011;5402;50.004;8.246;2024-01-07T12:08:50;5.50;;;4.13;;
10701;SDS011;5402;50.004;8.246;2024-01-07T12:11:20;5.60;;;4.07;;
10701;SDS011;5402;50.004;8.246;2024-01-07T12:13:48;6.50;;;4.33;;
10701;SDS011;5402;50.004;8.246;2024-01-07T12:16:16;8.17;;;4.60;;
10701;SDS011;5402;50.004;8.246;2024-01-07T12:18:43;6.40;;;4.37;;
10701;SDS011;5402;50.004;8.246;2024-01-07T12:21:10;8.63;;;6.10;;
10701;SDS011;5402;50.004;8.246;2024-01-07T12:23:49;5.23;;;3.97;;
10701;SDS011;5402;50.004;8.246;2024-01-07T12:26:20;5.80;;;4.03;;
10701;SDS011;5402;50.004;8.246;2024-01-07T12:28:57;6.78;;;4.40;;
10701;SDS011;5402;50.004;8.246;2024-01-07T12:31:28;6.97;;;4.33;;
10701;SDS011;5402;50.004;8.246;2024-01-07T12:33:55;9.13;;;4.33;;
10701;SDS011;5402;50.004;8.246;2024-01-07T12:36:24;7.10;;;5.00;;
10701;SDS011;5402;50.004;8.246;2024-01-07T12:38:51;6.73;;;4.77;;
10701;SDS011;5402;50.004;8.246;2024-01-07T12:41:21;8.00;;;4.60;;
10701;SDS011;5402;50.004;8.246;2024-01-07T12:43:51;5.43;;;3.60;;
10701;SDS011;5402;50.004;8.246;2024-01-07T12:46:17;8.07;;;4.53;;
10701;SDS011;5402;50.004;8.246;2024-01-07T12:48:47;7.97;;;5.07;;
10701;SDS011;5402;50.004;8.246;2024-01-07T12:51:14;8.43;;;5.30;;
10701;SDS011;5402;50.004;8.246;2024-01-07T12:53:42;10.47;;;5.87;;
10701;SDS011;5402;50.004;8.246;2024-01-07T12:56:09;10.17;;;5.10;;
10701;SDS011;5402;50.004;8.246;2024-01-07T12:58:40;6.27;;;3.90;;
10701;SDS011;5402;50.004;8.246;2024-01-07T13:01:07;6.50;;;4.13;;
10701;SDS011;5402;50.004;8.246;2024-01-07T13:03:34;7.87;;;4.23;;
10701;SDS011;5402;50.004;8.246;2024-01-07T13:06:04;7.03;;;4.03;;
10701;SDS011;5402;50.004;8.246;2024-01-07T13:08:35;6.97;;;4.40;;
10701;SDS011;5402;50.004;8.246;2024-01-07T13:11:03;7.17;;;4.07;;
10701;SDS011;5402;50.004;8.246;2024-01-07T13:13:33;7.00;;;4.20;;
10701;SDS011;5402;50.004;8.246;2024-01-07T13:16:01;6.37;;;4.03;;
10701;SDS011;5402;50.004;8.246;2024-01-07T13:18:29;6.30;;;4.30;;
10701;SDS011;5402;50.004;8.246;2024-01-07T13:20:55;8.13;;;4.70;;
10701;SDS011;5402;50.004;8.246;2024-01-07T13:23:23;7.90;;;4.27;;
10701;SDS011;5402;50.004;8.246;2024-01-07T13:25:51;6.70;;;3.83;;
10701;SDS011;5402;50.004;8.246;2024-01-07T13:28:22;8.23;;;4.27;;
10701;SDS011;5402;50.004;8.246;2024-01-07T13:30:50;10.60;;;4.97;;
10701;SDS011;5402;50.004;8.246;2024-01-07T13:33:19;9.73;;;4.67;;
10701;SDS011;5402;50.004;8.246;2024-01-07T13:35:48;5.57;;;3.87;;
10701;SDS011;5402;50.004;8.246;2024-01-07T13:38:17;7.37;;;4.47;;
10701;SDS011;5402;50.004;8.246;2024-01-07T13:40:44;5.37;;;4.03;;
10701;SDS011;5402;50.004;8.246;2024-01-07T13:43:11;7.37;;;4.10;;
10701;SDS011;5402;50.004;8.246;2024-01-07T13:45:38;7.27;;;4.20;;
10701;SDS011;5402;50.004;8.246;2024-01-07T13:48:06;5.87;;;4.03;;
10701;SDS011;5402;50.004;8.246;2024-01-07T13:50:34;5.37;;;3.73;;
10701;SDS011;5402;50.004;8.246;2024-01-07T13:53:01;5.43;;;4.10;;
10701;SDS011;5402;50.004;8.246;2024-01-07T13:55:28;4.53;;;3.27;;
10701;SDS011;5402;50.004;8.246;2024-01-07T13:57:55;6.77;;;4.00;;
10701;SDS011;5402;50.004;8.246;2024-01-07T14:00:23;6.57;;;3.80;;
10701;SDS011;5402;50.004;8.246;2024-01-07T14:02:50;6.77;;;3.83;;
10701;SDS011;5402;50.004;8.246;2024-01-07T14:05:17;7.93;;;3.67;;
10701;SDS011;5402;50.004;8.246;2024-01-07T14:07:45;7.30;;;3.50;;
10701;SDS011;5402;50.004;8.246;2024-01-07T14:10:12;5.23;;;3.50;;
10701;SDS011;5402;50.004;8.246;2024-01-07T14:12:39;6.20;;;4.27;;
10701;SDS011;5402;50.004;8.246;2024-01-07T14:15:06;6.10;;;3.70;;
10701;SDS011;5402;50.004;8.246;2024-01-07T14:17:34;5.57;;;3.57;;
10701;SDS011;5402;50.004;8.246;2024-01-07T14:20:01;8.10;;;4.53;;
10701;SDS011;5402;50.004;8.246;2024-01-07T14:22:28;5.27;;;3.60;;
10701;SDS011;5402;50.004;8.246;2024-01-07T14:24:56;6.00;;;3.70;;
10701;SDS011;5402;50.004;8.246;2024-01-07T14:27:23;7.47;;;4.27;;
10701;SDS011;5402;50.004;8.246;2024-01-07T14:29:50;6.23;;;4.23;;
10701;SDS011;5402;50.004;8.246;2024-01-07T14:32:18;5.17;;;3.70;;
10701;SDS011;5402;50.004;8.246;2024-01-07T14:34:48;5.50;;;3.83;;
10701;SDS011;5402;50.004;8.246;2024-01-07T14:37:16;7.93;;;4.20;;
10701;SDS011;5402;50.004;8.246;2024-01-07T14:39:43;5.43;;;4.00;;
10701;SDS011;5402;50.004;8.246;2024-01-07T14:42:11;6.67;;;4.07;;
10701;SDS011;5402;50.004;8.246;2024-01-07T14:44:38;6.67;;;3.70;;
10701;SDS011;5402;50.004;8.246;2024-01-07T14:47:05;4.73;;;3.57;;
10701;SDS011;5402;50.004;8.246;2024-01-07T14:49:33;6.77;;;3.83;;
10701;SDS011;5402;50.004;8.246;2024-01-07T14:52:00;7.23;;;4.00;;
10701;SDS011;5402;50.004;8.246;2024-01-07T14:54:28;6.20;;;4.07;;
10701;SDS011;5402;50.004;8.246;2024-01-07T14:56:57;6.50;;;3.50;;
10701;SDS011;5402;50.004;8.246;2024-01-07T14:59:26;5.60;;;3.30;;
10701;SDS011;5402;50.004;8.246;2024-01-07T15:01:52;4.07;;;3.50;;
10701;SDS011;5402;50.004;8.246;2024-01-07T15:04:19;4.83;;;3.57;;
10701;SDS011;5402;50.004;8.246;2024-01-07T15:06:46;5.53;;;3.60;;